Time;durP1;ratioP1;P1;durP2;ratioP2;P2;SDS_P1;SDS_P2;PMS_P1;PMS_P2;Temp;Humidity;BMP_temperature;BMP_pressure;BME280_temperature;BME280_humidity;BME280_pressure;Samples;Min_cycle;Max_cycle;Signal;HPM_P1;HPM_P2
2023/10/28 00:02:23;;;;;;;8.27;3.73;;;;;;;9.63;100.00;98711.72;4993301;28;20234;-71
2023/10/28 00:04:49;;;;;;;7.93;3.50;;;;;;;9.59;100.00;98717.91;4995449;28;20218;-73
2023/10/28 00:07:16;;;;;;;6.33;3.63;;;;;;;9.65;100.00;98721.41;4991569;28;20658;-75
2023/10/28 00:09:42;;;;;;;6.03;3.50;;;;;;;9.67;100.00;98722.25;4987546;28;20704;-78
2023/10/28 00:12:09;;;;;;;5.90;3.37;;;;;;;9.63;100.00;98715.25;4991399;28;20202;-77
2023/10/28 00:14:35;;;;;;;7.17;3.70;;;;;;;9.68;100.00;98723.13;4997216;28;20215;-74
2023/10/28 00:17:02;;;;;;;8.70;3.60;;;;;;;9.76;100.00;98725.69;5002055;28;20226;-74
2023/10/28 00:19:29;;;;;;;8.37;3.57;;;;;;;9.69;100.00;98720.47;4992380;28;20307;-73
2023/10/28 00:21:56;;;;;;;7.30;3.67;;;;;;;9.72;100.00;98712.50;4991111;28;20206;-72
2023/10/28 00:24:22;;;;;;;6.97;3.13;;;;;;;9.72;100.00;98723.09;4990051;28;20198;-75
2023/10/28 00:26:48;;;;;;;6.90;3.80;;;;;;;9.84;100.00;98716.78;4996753;28;20249;-73
2023/10/28 00:29:15;;;;;;;10.67;4.27;;;;;;;9.84;100.00;98722.06;4985697;28;20209;-74
2023/10/28 00:31:43;;;;;;;9.53;3.90;;;;;;;9.83;100.00;98717.69;4992112;28;20228;-73
2023/10/28 00:34:10;;;;;;;6.63;3.87;;;;;;;9.79;100.00;98718.59;4988954;28;20209;-74
2023/10/28 00:36:36;;;;;;;6.07;3.70;;;;;;;9.77;100.00;98716.88;4989537;28;20226;-75
2023/10/28 00:39:03;;;;;;;7.77;3.70;;;;;;;9.76;100.00;98702.78;4992553;28;20206;-77
2023/10/28 00:41:32;;;;;;;9.50;3.67;;;;;;;9.79;100.00;98709.81;4972548;28;20223;-79
2023/10/28 00:43:58;;;;;;;7.93;3.30;;;;;;;9.82;100.00;98709.75;4993281;28;20228;-78
2023/10/28 00:46:25;;;;;;;5.33;2.90;;;;;;;9.84;100.00;98719.44;4995262;28;20208;-80
2023/10/28 00:48:53;;;;;;;5.37;3.20;;;;;;;9.86;100.00;98716.78;4992560;28;20211;-78
2023/10/28 00:51:19;;;;;;;7.27;3.30;;;;;;;9.89;100.00;98716.72;4988908;28;20223;-81
2023/10/28 00:53:46;;;;;;;8.20;3.40;;;;;;;9.90;100.00;98719.34;4992009;28;20568;-79
2023/10/28 00:56:12;;;;;;;7.53;3.17;;;;;;;9.97;100.00;98704.28;4998174;28;20249;-79
2023/10/28 00:58:40;;;;;;;6.33;2.77;;;;;;;10.03;100.00;98710.41;4996569;28;20236;-79
2023/10/28 01:01:10;;;;;;;5.10;2.77;;;;;;;10.04;100.00;98708.66;4996215;28;20258;-79
2023/10/28 01:03:36;;;;;;;4.63;2.80;;;;;;;10.06;100.00;98706.84;4992407;28;20580;-78
2023/10/28 01:06:03;;;;;;;4.97;2.63;;;;;;;10.09;100.00;98706.81;4982685;28;20227;-80
2023/10/28 01:08:29;;;;;;;5.33;2.63;;;;;;;10.15;100.00;98714.69;4991306;28;20202;-83
2023/10/28 01:11:00;;;;;;;3.60;2.00;;;;;;;10.17;100.00;98715.53;4997064;28;20708;-80
2023/10/28 01:13:27;;;;;;;3.80;2.20;;;;;;;10.22;100.00;98710.22;4987567;28;20215;-80
2023/10/28 01:15:53;;;;;;;4.23;1.50;;;;;;;10.31;100.00;98715.38;4985237;28;20219;-79
2023/10/28 01:18:20;;;;;;;1.67;1.30;;;;;;;10.39;100.00;98717.94;4985457;28;20300;-79
2023/10/28 01:20:47;;;;;;;2.57;1.40;;;;;;;10.43;100.00;98712.63;4997350;28;20226;-79
2023/10/28 01:23:13;;;;;;;1.67;1.27;;;;;;;10.48;100.00;98717.84;4993112;28;20730;-80
2023/10/28 01:25:40;;;;;;;2.87;1.40;;;;;;;10.50;100.00;98713.41;4995109;28;20199;-79
2023/10/28 01:28:11;;;;;;;1.73;1.30;;;;;;;10.56;100.00;98708.03;4988852;28;20605;-80
2023/10/28 01:30:38;;;;;;;2.60;1.20;;;;;;;10.55;100.00;98704.50;4987643;28;20228;-80
2023/10/28 01:33:04;;;;;;;1.70;1.20;;;;;;;10.58;100.00;98699.16;4988167;28;20641;-79
2023/10/28 01:35:31;;;;;;;2.27;1.30;;;;;;;10.63;100.00;98705.25;4994169;28;20261;-82
2023/10/28 01:37:58;;;;;;;1.17;0.93;;;;;;;10.65;100.00;98692.88;4995722;28;20331;-79
2023/10/28 01:40:26;;;;;;;1.97;1.00;;;;;;;10.74;100.00;98702.44;4985106;28;20313;-80
2023/10/28 01:42:53;;;;;;;1.47;0.90;;;;;;;10.75;100.00;98698.03;4987605;28;20211;-79
2023/10/28 01:45:21;;;;;;;4.40;0.90;;;;;;;10.78;100.00;98700.63;4989075;28;20199;-78
2023/10/28 01:47:47;;;;;;;1.77;0.90;;;;;;;10.74;100.00;98694.50;4983793;28;20288;-82
2023/10/28 01:50:16;;;;;;;2.53;1.30;;;;;;;10.82;100.00;98703.25;4986066;28;20702;-81
2023/10/28 01:52:44;;;;;;;0.87;0.70;;;;;;;10.79;100.00;98711.19;4992224;28;20207;-79
2023/10/28 01:55:14;;;;;;;1.00;0.90;;;;;;;10.80;100.00;98707.66;4990414;28;20258;-83
2023/10/28 01:57:40;;;;;;;0.80;0.70;;;;;;;10.68;100.00;98714.00;4984640;28;20227;-80
2023/10/28 02:00:12;;;;;;;1.33;0.77;;;;;;;10.75;100.00;98711.28;5022942;22;20228;-71
2023/10/28 02:02:39;;;;;;;2.53;0.90;;;;;;;10.75;100.00;98714.78;5045081;28;20201;-72
2023/10/28 02:05:06;;;;;;;1.43;0.90;;;;;;;10.71;100.00;98718.38;5047256;28;20621;-70
2023/10/28 02:07:34;;;;;;;1.03;0.90;;;;;;;10.64;100.00;98722.03;5044263;28;20459;-70
2023/10/28 02:10:00;;;;;;;1.37;1.00;;;;;;;10.61;100.00;98720.28;5046619;28;20220;-68
2023/10/28 02:12:27;;;;;;;1.07;0.97;;;;;;;10.61;100.00;98728.22;5048639;28;20208;-73
2023/10/28 02:14:53;;;;;;;1.30;0.97;;;;;;;10.59;100.00;98742.38;5045725;28;20213;-72
2023/10/28 02:17:20;;;;;;;3.27;1.00;;;;;;;10.60;100.00;98742.38;5045025;28;20215;-71
2023/10/28 02:19:46;;;;;;;3.57;1.07;;;;;;;10.55;100.00;98735.38;5052649;28;20202;-71
2023/10/28 02:22:14;;;;;;;0.97;0.80;;;;;;;10.48;100.00;98728.44;5046977;28;20204;-72
2023/10/28 02:24:41;;;;;;;1.00;0.70;;;;;;;10.49;100.00;98741.63;5046203;28;20205;-75
2023/10/28 02:27:08;;;;;;;1.03;0.80;;;;;;;10.44;100.00;98738.19;5042232;28;20590;-74
2023/10/28 02:29:37;;;;;;;1.67;0.70;;;;;;;10.50;100.00;98745.16;5047260;28;20592;-74
2023/10/28 02:32:08;;;;;;;0.63;0.60;;;;;;;10.45;100.00;98747.00;5051106;28;20365;-77
2023/10/28 02:34:35;;;;;;;0.50;0.50;;;;;;;10.41;100.00;98753.22;5047734;28;20740;-72
2023/10/28 02:37:01;;;;;;;0.60;0.57;;;;;;;10.36;100.00;98754.13;5042631;28;20219;-72
2023/10/28 02:39:30;;;;;;;0.50;0.50;;;;;;;10.38;100.00;98762.03;5043007;28;20204;-71
2023/10/28 02:41:56;;;;;;;0.73;0.73;;;;;;;10.35;100.00;98760.31;5044340;28;20232;-73
2023/10/28 02:44:23;;;;;;;0.50;0.50;;;;;;;10.41;100.00;98748.81;5047161;28;20205;-70
2023/10/28 02:46:49;;;;;;;1.23;0.40;;;;;;;10.43;100.00;98759.38;5043827;28;20341;-71
2023/10/28 02:49:16;;;;;;;0.53;0.50;;;;;;;10.40;100.00;98757.59;5043918;28;20711;-73
2023/10/28 02:51:42;;;;;;;0.63;0.60;;;;;;;10.31;100.00;98766.53;5050901;28;20221;-73
2023/10/28 02:54:08;;;;;;;1.07;0.50;;;;;;;10.26;100.00;98765.72;5050838;28;20209;-74
2023/10/28 02:56:35;;;;;;;0.40;0.40;;;;;;;10.10;100.00;98774.69;5049976;28;20700;-71
2023/10/28 02:59:01;;;;;;;0.63;0.53;;;;;;;9.86;100.00;98769.66;5047952;28;20202;-73
2023/10/28 03:01:28;;;;;;;1.13;0.60;;;;;;;9.65;100.00;98773.38;5049494;28;20229;-72
2023/10/28 03:03:54;;;;;;;1.27;0.70;;;;;;;9.50;100.00;98779.66;5050809;28;20252;-76
2023/10/28 03:06:20;;;;;;;0.60;0.60;;;;;;;9.39;100.00;98779.75;5050066;28;20208;-75
2023/10/28 03:08:47;;;;;;;1.17;0.70;;;;;;;9.44;100.00;98782.34;5048779;28;20265;-75
2023/10/28 03:11:13;;;;;;;1.67;0.60;;;;;;;9.38;100.00;98780.63;5050398;28;20226;-80
2023/10/28 03:13:40;;;;;;;0.60;0.50;;;;;;;9.29;100.00;98785.13;5051051;28;20392;-79
2023/10/28 03:16:06;;;;;;;1.10;0.70;;;;;;;9.14;100.00;98778.16;5050160;28;20203;-79
2023/10/28 03:18:33;;;;;;;3.33;0.90;;;;;;;9.05;100.00;98797.59;5049571;28;20196;-76
2023/10/28 03:20:59;;;;;;;0.97;0.77;;;;;;;9.09;100.00;98798.44;5049404;28;20223;-76
2023/10/28 03:23:25;;;;;;;3.80;0.60;;;;;;;9.22;100.00;98794.00;5049127;28;20733;-78
2023/10/28 03:25:52;;;;;;;0.90;0.50;;;;;;;9.37;100.00;98796.50;5050725;28;20216;-78
2023/10/28 03:28:18;;;;;;;0.93;0.60;;;;;;;9.48;100.00;98799.94;5044545;28;20833;-78
2023/10/28 03:30:45;;;;;;;1.57;0.63;;;;;;;9.58;100.00;98806.00;5049764;28;20222;-80
2023/10/28 03:33:11;;;;;;;1.63;0.60;;;;;;;9.61;100.00;98798.09;5048509;28;20611;-79
2023/10/28 03:35:37;;;;;;;1.43;0.93;;;;;;;9.57;100.00;98802.50;5050587;28;20202;-78
2023/10/28 03:38:04;;;;;;;2.00;0.70;;;;;;;9.48;100.00;98802.56;5046512;28;20249;-76
2023/10/28 03:40:30;;;;;;;0.87;0.70;;;;;;;9.39;100.00;98806.19;5050273;28;20219;-75
2023/10/28 03:42:57;;;;;;;2.90;0.80;;;;;;;9.38;100.00;98807.06;5048250;28;20582;-77
2023/10/28 03:45:23;;;;;;;1.87;0.60;;;;;;;9.52;100.00;98801.66;5047940;28;20290;-78
2023/10/28 03:47:50;;;;;;;2.10;0.70;;;;;;;9.65;100.00;98803.34;5048272;28;20199;-79
2023/10/28 03:50:16;;;;;;;2.20;0.90;;;;;;;9.69;100.00;98797.13;5049291;28;20234;-76
2023/10/28 03:52:43;;;;;;;0.83;0.60;;;;;;;9.74;100.00;98805.00;5048358;28;20198;-78
2023/10/28 03:55:09;;;;;;;0.90;0.63;;;;;;;9.80;100.00;98809.38;5047676;28;20682;-81
2023/10/28 03:57:36;;;;;;;2.83;0.80;;;;;;;9.87;100.00;98817.22;5048367;28;20222;-77
2023/10/28 04:00:03;;;;;;;1.70;0.87;;;;;;;9.93;100.00;98818.94;5049133;28;20218;-77
2023/10/28 04:02:30;;;;;;;1.00;0.70;;;;;;;9.99;100.00;98832.09;5042548;28;20294;-77
2023/10/28 04:04:56;;;;;;;2.50;0.80;;;;;;;10.01;100.00;98835.63;5048237;28;20200;-76
2023/10/28 04:07:23;;;;;;;0.53;0.53;;;;;;;10.04;100.00;98820.59;5048232;28;20614;-78
2023/10/28 04:09:49;;;;;;;2.10;0.93;;;;;;;10.00;100.00;98805.63;5048782;28;20207;-76
2023/10/28 04:12:15;;;;;;;0.60;0.60;;;;;;;10.15;100.00;98816.97;5049773;28;20197;-77
2023/10/28 04:14:42;;;;;;;3.13;0.80;;;;;;;9.96;100.00;98821.53;5048932;28;20298;-74
2023/10/28 04:17:08;;;;;;;1.67;0.80;;;;;;;9.78;100.00;98825.25;5048379;28;20223;-76
2023/10/28 04:19:35;;;;;;;1.53;0.80;;;;;;;9.60;100.00;98820.09;5047107;28;20431;-75
2023/10/28 04:22:02;;;;;;;1.03;0.90;;;;;;;9.58;100.00;98829.81;5048430;28;20216;-75
2023/10/28 04:24:28;;;;;;;1.83;0.70;;;;;;;9.60;100.00;98823.59;5049947;28;20198;-73
2023/10/28 04:26:55;;;;;;;1.40;1.10;;;;;;;9.65;100.00;98832.41;5045695;28;20203;-74
2023/10/28 04:29:21;;;;;;;1.20;0.80;;;;;;;9.65;100.00;98824.47;5051769;28;20709;-73
2023/10/28 04:31:48;;;;;;;1.73;1.00;;;;;;;9.70;100.00;98827.97;5052761;28;20226;-70
2023/10/28 04:34:14;;;;;;;1.57;0.80;;;;;;;9.78;100.00;98827.00;5052395;28;20624;-71
2023/10/28 04:36:41;;;;;;;1.27;0.90;;;;;;;9.80;100.00;98823.47;5048334;28;20219;-70
2023/10/28 04:39:07;;;;;;;3.00;1.10;;;;;;;9.89;100.00;98825.16;5046776;28;20433;-70
2023/10/28 04:41:33;;;;;;;1.90;0.83;;;;;;;9.94;100.00;98824.19;5049475;28;20226;-69
2023/10/28 04:44:01;;;;;;;2.27;1.10;;;;;;;10.04;100.00;98830.31;5049781;28;20225;-67
2023/10/28 04:46:29;;;;;;;1.40;0.93;;;;;;;10.04;100.00;98823.25;5053370;28;20207;-69
2023/10/28 04:48:56;;;;;;;1.70;1.10;;;;;;;10.06;100.00;98820.59;5051360;28;20260;-68
2023/10/28 04:51:24;;;;;;;1.23;1.00;;;;;;;10.09;100.00;98824.97;5030033;28;20225;-68
2023/10/28 04:53:50;;;;;;;2.43;1.20;;;;;;;10.12;100.00;98814.34;5048651;28;20719;-71
2023/10/28 04:56:18;;;;;;;3.40;1.13;;;;;;;10.17;100.00;98823.13;5051648;28;20200;-69
2023/10/28 04:58:44;;;;;;;2.23;0.90;;;;;;;10.19;100.00;98821.34;5041405;28;20209;-71
2023/10/28 05:01:11;;;;;;;3.13;1.33;;;;;;;10.19;100.00;98822.22;5046439;28;20356;-70
2023/10/28 05:03:37;;;;;;;2.37;1.00;;;;;;;10.19;100.00;98826.63;5048113;28;20198;-70
2023/10/28 05:06:04;;;;;;;1.97;1.10;;;;;;;10.20;100.00;98820.44;5046474;28;20287;-71
2023/10/28 05:08:30;;;;;;;1.93;1.00;;;;;;;10.20;100.00;98815.16;5044121;28;20215;-67
2023/10/28 05:10:57;;;;;;;4.37;1.30;;;;;;;10.17;100.00;98807.25;5045264;28;20706;-70
2023/10/28 05:13:23;;;;;;;3.10;1.00;;;;;;;10.17;100.00;98801.97;5048666;28;20201;-68
2023/10/28 05:15:50;;;;;;;7.00;1.10;;;;;;;10.13;100.00;98806.41;5040183;28;20581;-72
2023/10/28 05:18:16;;;;;;;1.70;0.87;;;;;;;10.14;100.00;98808.16;5046266;28;20304;-69
2023/10/28 05:20:43;;;;;;;2.47;1.10;;;;;;;10.12;100.00;98804.66;5047397;28;20228;-67
2023/10/28 05:23:09;;;;;;;2.17;1.00;;;;;;;10.17;100.00;98809.88;5045406;28;20207;-69
2023/10/28 05:25:36;;;;;;;1.90;1.10;;;;;;;10.12;100.00;98804.66;5047930;28;20300;-70
2023/10/28 05:28:02;;;;;;;1.77;1.00;;;;;;;10.14;100.00;98818.75;5046037;28;20210;-69
2023/10/28 05:30:28;;;;;;;2.43;0.97;;;;;;;10.28;100.00;98813.31;5043150;28;20256;-71
2023/10/28 05:32:55;;;;;;;1.77;1.00;;;;;;;10.28;100.00;98818.63;5047224;28;20321;-69
2023/10/28 05:35:21;;;;;;;1.10;1.00;;;;;;;10.22;100.00;98805.47;5045044;28;20278;-71
2023/10/28 05:37:48;;;;;;;1.00;0.90;;;;;;;10.17;100.00;98802.84;5046902;28;20217;-67
2023/10/28 05:40:14;;;;;;;1.43;0.97;;;;;;;10.20;100.00;98807.22;5042480;28;20221;-68
2023/10/28 05:42:41;;;;;;;2.93;1.10;;;;;;;10.19;100.00;98805.47;5046243;28;20209;-68
2023/10/28 05:45:08;;;;;;;3.00;1.20;;;;;;;10.19;100.00;98814.28;5046680;28;20213;-71
2023/10/28 05:47:34;;;;;;;2.03;1.20;;;;;;;10.23;100.00;98823.09;5047354;28;20688;-69
2023/10/28 05:50:07;;;;;;;3.93;1.30;;;;;;;10.20;100.00;98820.44;5041775;28;20288;-69
2023/10/28 05:52:34;;;;;;;2.93;1.20;;;;;;;10.16;100.00;98819.59;5048798;28;20674;-70
2023/10/28 05:55:02;;;;;;;2.33;1.20;;;;;;;10.16;100.00;98821.38;5046044;28;20215;-68
2023/10/28 05:57:29;;;;;;;1.10;0.90;;;;;;;10.18;100.00;98823.09;5045988;28;20356;-69
2023/10/28 05:59:55;;;;;;;1.77;1.20;;;;;;;10.19;100.00;98830.16;5046112;28;20208;-69
2023/10/28 06:02:24;;;;;;;1.87;1.40;;;;;;;10.22;100.00;98826.63;5047501;28;20210;-72
2023/10/28 06:04:52;;;;;;;1.97;1.10;;;;;;;10.23;100.00;98839.84;5046705;28;20661;-68
2023/10/28 06:07:19;;;;;;;2.90;1.30;;;;;;;10.26;100.00;98831.00;5043952;28;20669;-69
2023/10/28 06:09:47;;;;;;;2.10;1.20;;;;;;;10.25;100.00;98832.75;5045675;28;20204;-68
2023/10/28 06:12:14;;;;;;;3.57;1.10;;;;;;;10.28;100.00;98835.38;5047022;28;20242;-72
2023/10/28 06:14:42;;;;;;;2.43;1.00;;;;;;;10.28;100.00;98840.66;5046840;28;20228;-69
2023/10/28 06:17:09;;;;;;;3.90;1.47;;;;;;;10.39;100.00;98840.53;5043790;28;20299;-69
2023/10/28 06:19:35;;;;;;;2.73;1.27;;;;;;;10.41;100.00;98848.50;5046416;28;20264;-69
2023/10/28 06:22:02;;;;;;;3.07;1.40;;;;;;;10.38;100.00;98848.50;5046362;28;20229;-69
2023/10/28 06:24:28;;;;;;;2.67;1.20;;;;;;;10.43;100.00;98841.41;5046111;28;20234;-69
2023/10/28 06:26:56;;;;;;;5.07;1.13;;;;;;;10.47;100.00;98846.66;5043818;28;20200;-72
2023/10/28 06:29:23;;;;;;;2.87;1.23;;;;;;;10.52;100.00;98847.47;5046410;28;20206;-67
2023/10/28 06:31:50;;;;;;;2.87;1.20;;;;;;;10.55;100.00;98846.56;5047201;28;20246;-68
2023/10/28 06:34:17;;;;;;;2.50;1.10;;;;;;;10.56;100.00;98854.47;5045420;28;20209;-69
2023/10/28 06:36:43;;;;;;;4.40;1.33;;;;;;;10.61;100.00;98857.06;5046295;28;20700;-68
2023/10/28 06:39:10;;;;;;;3.23;1.57;;;;;;;10.64;100.00;98851.75;5046174;28;20218;-68
2023/10/28 06:41:36;;;;;;;3.03;1.40;;;;;;;10.68;100.00;98856.09;5047519;28;20222;-70
2023/10/28 06:44:05;;;;;;;4.77;1.63;;;;;;;10.71;100.00;98861.34;5049159;28;20782;-72
2023/10/28 06:46:32;;;;;;;2.20;1.03;;;;;;;10.75;100.00;98868.38;5046448;28;20681;-71
2023/10/28 06:48:59;;;;;;;2.80;1.27;;;;;;;10.85;100.00;98855.91;5044424;28;20298;-72
2023/10/28 06:51:26;;;;;;;4.30;1.20;;;;;;;10.78;100.00;98854.22;5047019;28;20226;-66
2023/10/28 06:53:52;;;;;;;5.63;1.40;;;;;;;10.89;100.00;98858.50;5049908;28;20213;-71
2023/10/28 06:56:19;;;;;;;5.10;1.10;;;;;;;11.01;100.00;98864.53;5045178;28;20212;-69
2023/10/28 06:58:45;;;;;;;5.60;1.13;;;;;;;11.13;100.00;98870.53;5046823;28;20228;-70
2023/10/28 07:01:12;;;;;;;4.63;1.30;;;;;;;11.21;100.00;98859.88;5049566;28;20241;-68
2023/10/28 07:03:38;;;;;;;3.03;1.27;;;;;;;11.23;100.00;98869.53;5044672;28;20205;-67
2023/10/28 07:06:07;;;;;;;4.77;1.40;;;;;;;11.28;100.00;98869.47;5045306;28;20494;-70
2023/10/28 07:08:34;;;;;;;3.57;1.43;;;;;;;11.32;100.00;98873.84;5051971;28;20208;-69
2023/10/28 07:11:00;;;;;;;4.60;1.17;;;;;;;11.36;100.00;98878.19;5046642;28;20222;-69
2023/10/28 07:13:27;;;;;;;3.60;1.30;;;;;;;11.40;100.00;98876.38;5046969;28;20195;-69
2023/10/28 07:16:01;;;;;;;3.63;1.10;;;;;;;11.44;100.00;98878.06;5048824;28;20217;-70
2023/10/28 07:18:31;;;;;;;4.17;1.30;;;;;;;11.47;100.00;98885.97;5054090;28;20213;-71
2023/10/28 07:21:02;;;;;;;4.73;1.13;;;;;;;11.59;100.00;98883.13;5048119;28;20222;-71
2023/10/28 07:23:30;;;;;;;7.03;1.40;;;;;;;11.65;100.00;98888.38;5041746;28;20701;-70
2023/10/28 07:25:58;;;;;;;3.47;1.10;;;;;;;11.73;100.00;98894.44;5046020;28;20218;-69
2023/10/28 07:28:25;;;;;;;6.33;1.10;;;;;;;11.84;100.00;98891.66;5047313;28;20198;-69
2023/10/28 07:30:52;;;;;;;3.07;0.90;;;;;;;11.86;100.00;98887.19;5048377;28;20258;-67
2023/10/28 07:33:19;;;;;;;2.17;1.10;;;;;;;11.97;100.00;98894.97;5047052;28;20205;-69
2023/10/28 07:35:50;;;;;;;5.53;1.30;;;;;;;12.03;100.00;98905.50;5047122;28;20587;-68
2023/10/28 07:38:17;;;;;;;2.80;0.93;;;;;;;12.13;100.00;98904.44;5048097;28;20276;-69
2023/10/28 07:40:45;;;;;;;3.70;1.20;;;;;;;12.12;100.00;98910.66;5048839;28;20775;-71
2023/10/28 07:43:12;;;;;;;2.90;1.00;;;;;;;12.12;100.00;98908.88;5049742;28;20199;-67
2023/10/28 07:45:40;;;;;;;2.27;1.07;;;;;;;12.17;100.00;98903.50;5053480;28;20293;-68
2023/10/28 07:48:07;;;;;;;4.17;1.23;;;;;;;12.18;100.00;98915.84;5048040;28;20195;-68
2023/10/28 07:50:33;;;;;;;4.50;1.33;;;;;;;12.17;100.00;98914.97;5050416;28;20222;-70
2023/10/28 07:53:00;;;;;;;6.40;1.20;;;;;;;12.14;100.00;98908.84;5050306;28;20290;-70
2023/10/28 07:55:27;;;;;;;2.17;1.00;;;;;;;12.24;100.00;98926.38;5049225;28;20202;-68
2023/10/28 07:57:54;;;;;;;2.70;1.00;;;;;;;12.23;100.00;98928.13;5047472;28;20230;-69
2023/10/28 08:00:20;;;;;;;3.80;1.20;;;;;;;12.24;100.00;98935.19;5064889;22;20227;-72
2023/10/28 08:02:47;;;;;;;3.27;1.00;;;;;;;12.29;100.00;98932.47;5005023;28;20247;-72
2023/10/28 08:05:13;;;;;;;3.97;1.13;;;;;;;12.43;100.00;98940.22;5007800;28;20710;-72
2023/10/28 08:07:40;;;;;;;3.30;1.30;;;;;;;12.49;100.00;98937.44;5008890;28;20196;-74
2023/10/28 08:10:08;;;;;;;4.63;1.20;;;;;;;12.50;100.00;98936.53;5007540;28;20207;-70
2023/10/28 08:12:34;;;;;;;3.07;1.30;;;;;;;12.53;100.00;98942.69;5007545;28;20226;-73
2023/10/28 08:15:02;;;;;;;1.97;0.97;;;;;;;12.61;100.00;98941.66;4991209;28;20300;-73
2023/10/28 08:17:32;;;;;;;3.83;1.07;;;;;;;12.70;100.00;98942.34;4991337;28;20295;-71
2023/10/28 08:19:59;;;;;;;3.37;0.90;;;;;;;12.76;100.00;98950.22;5007394;28;20299;-73
2023/10/28 08:22:25;;;;;;;2.37;1.00;;;;;;;12.81;100.00;98934.22;5008577;28;20260;-72
2023/10/28 08:24:52;;;;;;;2.60;1.57;;;;;;;13.00;100.00;98953.31;4990510;28;20575;-71
2023/10/28 08:27:19;;;;;;;3.53;0.80;;;;;;;13.20;100.00;98958.25;5006888;28;20218;-74
2023/10/28 08:29:48;;;;;;;6.03;0.90;;;;;;;13.27;100.00;98957.25;5008643;28;20200;-69
2023/10/28 08:32:18;;;;;;;3.10;1.00;;;;;;;13.37;100.00;98953.50;5006091;28;20220;-70
2023/10/28 08:34:44;;;;;;;4.80;1.17;;;;;;;13.32;100.00;98948.28;5006938;28;20206;-72
2023/10/28 08:37:13;;;;;;;3.80;1.27;;;;;;;13.29;100.00;98955.44;5006735;28;20207;-71
2023/10/28 08:39:40;;;;;;;1.40;0.90;;;;;;;13.14;100.00;98953.91;5007204;28;20224;-72
2023/10/28 08:42:07;;;;;;;5.47;1.17;;;;;;;13.19;100.00;98954.72;5005128;28;20259;-69
2023/10/28 08:44:34;;;;;;;1.97;1.13;;;;;;;13.14;100.00;98954.78;5008074;28;20196;-72
2023/10/28 08:47:06;;;;;;;2.47;0.80;;;;;;;13.11;100.00;98957.50;5003611;28;20204;-74
2023/10/28 08:49:39;;;;;;;2.50;0.87;;;;;;;13.16;100.00;98960.94;5007255;28;20192;-70
2023/10/28 08:52:11;;;;;;;3.33;0.80;;;;;;;13.27;100.00;98965.22;5005373;28;20228;-70
2023/10/28 08:54:38;;;;;;;3.13;0.90;;;;;;;13.31;100.00;98980.22;5002134;28;20672;-69
2023/10/28 08:57:07;;;;;;;3.60;1.20;;;;;;;13.36;100.00;98971.22;5007802;28;20676;-69
2023/10/28 08:59:33;;;;;;;3.07;1.10;;;;;;;13.34;100.00;98965.06;5002417;28;20689;-70
2023/10/28 09:02:00;;;;;;;4.30;1.10;;;;;;;13.47;100.00;98973.66;5004112;28;20232;-70
2023/10/28 09:04:27;;;;;;;4.23;1.10;;;;;;;13.51;100.00;98971.81;5006153;28;20660;-71
2023/10/28 09:06:53;;;;;;;1.77;0.90;;;;;;;13.56;100.00;98978.78;5006277;28;20587;-70
2023/10/28 09:09:25;;;;;;;3.80;0.80;;;;;;;13.64;100.00;98983.97;5003194;28;20727;-73
2023/10/28 09:11:55;;;;;;;2.97;1.30;;;;;;;13.49;100.00;98983.34;5006376;28;20314;-71
2023/10/28 09:14:22;;;;;;;5.30;1.67;;;;;;;13.49;100.00;98977.16;5006360;28;20291;-73
2023/10/28 09:16:49;;;;;;;3.20;1.20;;;;;;;13.46;100.00;98966.59;5007550;28;20211;-71
2023/10/28 09:19:20;;;;;;;2.90;1.20;;;;;;;13.30;100.00;98970.47;5002387;28;20294;-72
2023/10/28 09:21:48;;;;;;;6.50;1.40;;;;;;;13.48;100.00;98967.44;4989958;28;20279;-70
2023/10/28 09:24:16;;;;;;;2.50;1.00;;;;;;;13.64;100.00;98978.63;5005177;28;20204;-71
2023/10/28 09:26:42;;;;;;;3.63;1.30;;;;;;;13.78;100.00;98972.09;5007666;28;20280;-73
2023/10/28 09:29:09;;;;;;;1.83;1.00;;;;;;;13.90;100.00;98981.56;5001165;28;20282;-69
2023/10/28 09:31:37;;;;;;;2.17;1.00;;;;;;;14.21;98.54;98980.88;5010187;28;20223;-72
2023/10/28 09:34:05;;;;;;;6.07;1.20;;;;;;;14.23;95.45;98982.59;5015058;28;20200;-73
2023/10/28 09:36:32;;;;;;;2.30;1.00;;;;;;;14.34;95.42;98985.84;5012002;28;20208;-70
2023/10/28 09:39:02;;;;;;;2.87;0.90;;;;;;;14.58;93.65;98988.88;5002060;28;20226;-69
2023/10/28 09:41:29;;;;;;;1.87;1.00;;;;;;;14.64;92.65;98986.03;4990907;28;20305;-70
2023/10/28 09:43:55;;;;;;;4.93;1.03;;;;;;;14.90;90.86;99001.38;5007822;28;20226;-70
2023/10/28 09:46:26;;;;;;;3.13;1.30;;;;;;;15.30;88.91;98979.81;5020558;28;20573;-70
2023/10/28 09:48:58;;;;;;;3.33;1.00;;;;;;;15.70;86.46;98987.59;4998007;28;20218;-69
2023/10/28 09:51:27;;;;;;;4.23;1.20;;;;;;;15.86;83.82;98978.19;4986832;28;20231;-65
2023/10/28 09:54:02;;;;;;;4.43;1.57;;;;;;;15.64;83.36;98996.66;5007732;28;20226;-67
2023/10/28 09:56:36;;;;;;;6.57;1.17;;;;;;;15.33;84.36;98991.28;5005414;28;20694;-72
2023/10/28 09:59:20;;;;;;;3.37;0.97;;;;;;;15.19;86.59;98995.22;5000472;28;20253;-68
2023/10/28 10:02:12;;;;;;;4.90;1.27;;;;;;;15.06;88.22;98994.69;5003293;28;20224;-69
2023/10/28 10:04:58;;;;;;;4.77;1.60;;;;;;;14.83;89.29;98995.34;5006914;28;20208;-72
2023/10/28 10:07:25;;;;;;;5.57;1.60;;;;;;;14.80;90.00;99006.03;5000671;28;20200;-72
2023/10/28 10:09:52;;;;;;;3.37;0.90;;;;;;;14.75;89.40;99010.63;5000640;28;20204;-71
2023/10/28 10:12:28;;;;;;;3.27;1.13;;;;;;;14.51;90.73;99005.94;4999911;28;20234;-70
2023/10/28 10:14:56;;;;;;;3.03;1.20;;;;;;;14.52;91.32;99007.69;5006630;28;20204;-70
2023/10/28 10:17:33;;;;;;;3.80;1.20;;;;;;;14.49;91.25;99005.09;5001348;28;20219;-73
2023/10/28 10:20:04;;;;;;;4.00;1.23;;;;;;;14.56;91.46;99014.69;5003725;28;20238;-68
2023/10/28 10:22:35;;;;;;;4.03;1.37;;;;;;;14.55;90.83;99011.13;5004291;28;20224;-67
2023/10/28 10:25:02;;;;;;;7.47;1.60;;;;;;;14.62;91.08;99007.41;5004909;28;20727;-67
2023/10/28 10:27:40;;;;;;;5.27;1.20;;;;;;;14.69;90.26;99011.66;5003120;28;20211;-74
2023/10/28 10:30:09;;;;;;;5.10;1.23;;;;;;;14.83;88.96;99011.31;5004261;28;20291;-69
2023/10/28 10:32:46;;;;;;;4.23;1.10;;;;;;;14.90;88.32;99015.56;5003809;28;20726;-70
2023/10/28 10:35:27;;;;;;;3.50;1.30;;;;;;;15.16;88.46;99014.84;4984443;28;20204;-71
2023/10/28 10:38:04;;;;;;;4.97;1.80;;;;;;;15.20;86.72;99010.31;5001688;28;20208;-71
2023/10/28 10:40:32;;;;;;;4.53;1.40;;;;;;;15.46;85.62;99006.94;5000098;28;20223;-70
2023/10/28 10:43:06;;;;;;;6.40;1.23;;;;;;;15.58;84.85;99004.81;5007912;28;20212;-71
2023/10/28 10:45:37;;;;;;;4.27;1.30;;;;;;;15.30;85.03;99006.50;4993066;28;20202;-71
2023/10/28 10:48:06;;;;;;;4.13;1.40;;;;;;;15.02;84.22;99012.56;5003626;28;20208;-68
2023/10/28 10:50:34;;;;;;;4.47;1.40;;;;;;;15.06;85.93;99013.38;5003487;28;20311;-72
2023/10/28 10:53:03;;;;;;;2.23;1.13;;;;;;;14.86;85.14;99008.56;5005356;28;20224;-71
2023/10/28 10:55:30;;;;;;;3.10;1.40;;;;;;;14.80;86.81;99011.38;5006056;28;20196;-70
2023/10/28 10:57:58;;;;;;;3.07;1.20;;;;;;;14.67;87.19;99007.28;5005306;28;20216;-71
2023/10/28 11:00:24;;;;;;;4.37;1.53;;;;;;;14.58;88.13;99007.53;5006262;28;20570;-72
2023/10/28 11:02:56;;;;;;;3.23;1.30;;;;;;;14.74;87.37;99001.75;5006380;28;20210;-71
2023/10/28 11:05:23;;;;;;;7.97;2.70;;;;;;;14.70;86.82;98997.41;4989218;28;20204;-71
2023/10/28 11:07:50;;;;;;;6.37;1.70;;;;;;;14.81;86.40;99004.25;5004478;28;20211;-70
2023/10/28 11:10:19;;;;;;;4.47;1.43;;;;;;;14.68;87.47;98993.03;5008754;28;20206;-74
2023/10/28 11:12:45;;;;;;;10.70;1.70;;;;;;;14.74;88.64;99004.41;5010215;28;20207;-71
2023/10/28 11:15:12;;;;;;;3.73;1.30;;;;;;;14.77;88.41;99000.78;5011556;28;20303;-70
2023/10/28 11:17:40;;;;;;;3.33;1.20;;;;;;;14.75;88.70;98991.97;5015546;28;20317;-70
2023/10/28 11:20:09;;;;;;;5.20;1.43;;;;;;;14.82;88.15;99000.69;5011781;28;20661;-71
2023/10/28 11:22:37;;;;;;;6.67;1.60;;;;;;;14.76;88.83;98995.50;5009768;28;20204;-69
2023/10/28 11:25:04;;;;;;;8.10;1.30;;;;;;;14.80;88.28;98990.06;4992328;28;20290;-70
2023/10/28 11:27:31;;;;;;;4.73;1.50;;;;;;;14.97;88.75;99000.28;5008783;28;20619;-73
2023/10/28 11:30:00;;;;;;;3.43;1.30;;;;;;;15.09;88.72;98983.06;5007139;28;20688;-71
2023/10/28 11:32:27;;;;;;;4.90;1.30;;;;;;;15.22;86.62;98987.19;5008973;28;20655;-71